Time;durP1;ratioP1;P1;durP2;ratioP2;P2;SDS_P1;SDS_P2;PMS_P1;PMS_P2;Temp;Humidity;BMP_temperature;BMP_pressure;BME280_temperature;BME280_humidity;BME280_pressure;Samples;Min_cycle;Max_cycle;Signal;HPM_P1;HPM_P2
2022/12/11 00:01:56;;;;;;;39.03;16.45;;;;;;;-2.63;100.00;98453.63;5083418;28;20410;-78
2022/12/11 00:04:23;;;;;;;32.53;14.75;;;;;;;-2.55;100.00;98466.34;5080663;28;20507;-78
2022/12/11 00:06:49;;;;;;;39.28;16.77;;;;;;;-2.47;100.00;98465.75;5086392;28;20097;-78
2022/12/11 00:09:16;;;;;;;33.70;16.17;;;;;;;-2.63;100.00;98437.66;5080806;28;20135;-78
2022/12/11 00:11:43;;;;;;;30.17;14.93;;;;;;;-2.47;100.00;98461.25;5085206;28;20063;-78
2022/12/11 00:14:12;;;;;;;31.77;16.35;;;;;;;-2.57;100.00;98449.66;5077963;28;20102;-78
2022/12/11 00:16:38;;;;;;;34.55;15.77;;;;;;;-2.60;100.00;98458.72;5081992;28;20471;-78
2022/12/11 00:19:05;;;;;;;35.97;16.90;;;;;;;-2.37;100.00;98454.25;5089709;28;20066;-78
2022/12/11 00:21:32;;;;;;;32.70;15.55;;;;;;;-2.37;100.00;98451.59;5080677;28;20055;-78
2022/12/11 00:23:59;;;;;;;40.15;16.65;;;;;;;-2.43;100.00;98454.72;5080856;28;20047;-78
2022/12/11 00:26:26;;;;;;;39.47;15.15;;;;;;;-2.43;100.00;98472.53;5094419;28;20134;-78
2022/12/11 00:28:54;;;;;;;38.40;16.95;;;;;;;-2.53;100.00;98459.94;5081725;28;20044;-78
2022/12/11 00:31:23;;;;;;;34.45;14.85;;;;;;;-2.40;100.00;98459.81;5088014;28;20044;-78
2022/12/11 00:33:50;;;;;;;34.10;15.68;;;;;;;-2.46;100.00;98447.00;5079204;28;20101;-78
2022/12/11 00:36:19;;;;;;;37.88;16.05;;;;;;;-2.54;100.00;98428.97;5078494;28;20500;-78
2022/12/11 00:38:45;;;;;;;37.28;14.50;;;;;;;-2.22;100.00;98462.84;5087636;28;20415;-78
2022/12/11 00:41:12;;;;;;;31.23;13.85;;;;;;;-2.24;100.00;98450.63;5083829;28;20048;-78
2022/12/11 00:43:39;;;;;;;33.47;16.25;;;;;;;-2.22;100.00;98459.34;5081140;28;20044;-76
2022/12/11 00:46:06;;;;;;;34.42;14.95;;;;;;;-2.23;100.00;98461.19;5076319;28;20044;-76
2022/12/11 00:48:34;;;;;;;31.00;13.07;;;;;;;-2.31;100.00;98444.94;5081041;28;20505;-76
2022/12/11 00:51:01;;;;;;;33.13;14.48;;;;;;;-2.41;100.00;98451.94;5084785;28;20050;-76
2022/12/11 00:53:28;;;;;;;36.75;16.05;;;;;;;-2.39;100.00;98456.19;5084176;28;20059;-76
2022/12/11 00:55:54;;;;;;;33.85;15.60;;;;;;;-2.55;100.00;98437.06;5086020;28;20044;-76
2022/12/11 00:58:21;;;;;;;39.53;16.58;;;;;;;-2.43;100.00;98441.44;5089453;28;20047;-76
2022/12/11 01:00:48;;;;;;;31.63;15.43;;;;;;;-2.30;100.00;98459.97;5084673;28;20400;-76
2022/12/11 01:03:16;;;;;;;36.00;15.38;;;;;;;-2.29;100.00;98463.47;5085287;28;20055;-76
2022/12/11 01:05:52;;;;;;;35.20;16.52;;;;;;;-2.24;100.00;98464.81;5079880;28;20736;-76
2022/12/11 01:08:19;;;;;;;33.17;14.85;;;;;;;-2.39;100.00;98436.72;5078360;28;20044;-76
2022/12/11 01:10:45;;;;;;;28.65;14.55;;;;;;;-2.23;100.00;98454.97;5079033;28;20048;-76
2022/12/11 01:13:12;;;;;;;38.83;16.05;;;;;;;-2.38;100.00;98439.28;5078049;28;20052;-76
2022/12/11 01:15:40;;;;;;;55.25;18.08;;;;;;;-2.21;100.00;98467.22;5076018;28;20473;-76
2022/12/11 01:18:06;;;;;;;48.90;19.42;;;;;;;-2.29;100.00;98455.47;5083796;28;20071;-76
2022/12/11 01:20:33;;;;;;;43.78;18.40;;;;;;;-2.17;100.00;98481.13;5078637;28;20181;-76
2022/12/11 01:23:01;;;;;;;35.35;17.20;;;;;;;-2.32;100.00;98451.22;5073672;28;20084;-76
2022/12/11 01:25:28;;;;;;;27.80;14.48;;;;;;;-2.19;100.00;98457.28;5081317;28;20072;-76
2022/12/11 01:27:56;;;;;;;30.08;13.88;;;;;;;-2.10;100.00;98465.53;5080973;28;20762;-76
2022/12/11 01:30:25;;;;;;;30.08;13.30;;;;;;;-2.09;100.00;98468.06;5083182;28;20131;-76
2022/12/11 01:32:51;;;;;;;27.45;13.63;;;;;;;-2.09;100.00;98477.84;5074244;28;20054;-76
2022/12/11 01:35:18;;;;;;;30.75;13.43;;;;;;;-1.98;100.00;98483.19;5087202;28;20467;-76
2022/12/11 01:37:45;;;;;;;29.75;14.15;;;;;;;-2.15;100.00;98449.91;5080574;28;20191;-76
2022/12/11 01:40:15;;;;;;;35.60;15.93;;;;;;;-2.06;100.00;98464.28;5086404;28;20048;-76
2022/12/11 01:42:42;;;;;;;;;;;;;;;-1.97;100.00;98479.56;5075646;28;20135;-76
2022/12/11 01:45:29;;;;;;;32.80;13.60;;;;;;;-2.18;100.00;98458.97;5085667;28;20069;-76
2022/12/11 01:48:03;;;;;;;31.60;13.88;;;;;;;-2.15;100.00;98449.91;5078381;28;20135;-76
2022/12/11 01:50:33;;;;;;;31.50;14.18;;;;;;;-2.23;100.00;98439.88;5083608;28;20138;-76
2022/12/11 01:53:01;;;;;;;29.23;13.63;;;;;;;-2.16;100.00;98446.38;5070771;28;20063;-76
2022/12/11 01:55:29;;;;;;;29.85;12.95;;;;;;;-2.08;100.00;98464.41;5076560;28;20050;-78
2022/12/11 01:57:56;;;;;;;32.10;11.95;;;;;;;-2.24;100.00;98462.13;5078489;28;20051;-78
2022/12/11 02:00:22;;;;;;;23.27;11.45;;;;;;;-2.10;100.00;98479.69;5084661;28;20142;-76
2022/12/11 02:02:49;;;;;;;27.45;14.43;;;;;;;-2.18;100.00;98474.13;5080883;28;20135;-76
2022/12/11 02:05:16;;;;;;;27.58;11.88;;;;;;;-2.21;100.00;98461.06;5088985;28;20044;-76
2022/12/11 02:07:46;;;;;;;21.70;10.35;;;;;;;-2.14;100.00;98481.75;5077556;28;20052;-76
2022/12/11 02:10:13;;;;;;;24.80;10.93;;;;;;;-1.95;100.00;98493.59;5079689;28;20194;-76
2022/12/11 02:12:53;;;;;;;19.90;10.52;;;;;;;-2.05;100.00;98473.97;5083722;28;20415;-76
2022/12/11 02:15:30;;;;;;;22.30;10.85;;;;;;;-2.01;100.00;98492.25;5079803;28;20040;-77
2022/12/11 02:18:07;;;;;;;23.52;9.85;;;;;;;-2.08;100.00;98491.03;5077308;28;20040;-76
2022/12/11 02:20:40;;;;;;;24.75;13.30;;;;;;;-2.16;100.00;98485.50;5081167;28;20052;-76
2022/12/11 02:23:27;;;;;;;21.85;10.77;;;;;;;-2.23;100.00;98477.16;5077028;28;20055;-76
2022/12/11 02:26:02;;;;;;;28.90;12.23;;;;;;;-2.18;100.00;98484.78;5078328;28;20052;-76
2022/12/11 02:28:33;;;;;;;18.48;9.82;;;;;;;-2.28;100.00;98470.50;5092257;28;20491;-76
2022/12/11 02:31:04;;;;;;;22.92;11.80;;;;;;;-2.11;100.00;98499.28;5091538;28;20059;-76
2022/12/11 02:33:37;;;;;;;24.27;11.55;;;;;;;-2.14;100.00;98483.53;5090572;28;20071;-76
2022/12/11 02:36:06;;;;;;;22.27;12.10;;;;;;;-2.23;100.00;98470.97;5083322;28;20048;-76
2022/12/11 02:38:37;;;;;;;20.15;11.63;;;;;;;-2.20;100.00;98481.38;5080397;28;20122;-77
2022/12/11 02:41:07;;;;;;;22.52;11.18;;;;;;;-2.36;100.00;98452.47;5088063;28;20051;-77
2022/12/11 02:43:37;;;;;;;27.27;13.43;;;;;;;-2.21;100.00;98475.22;5078290;28;20048;-77
2022/12/11 02:46:07;;;;;;;26.63;11.68;;;;;;;-2.24;100.00;98471.91;5076813;28;20045;-76
2022/12/11 02:48:35;;;;;;;21.30;11.55;;;;;;;-2.28;100.00;98457.19;5083664;28;20249;-76
2022/12/11 02:51:06;;;;;;;19.60;11.20;;;;;;;-2.18;100.00;98492.78;5090232;28;20044;-77
2022/12/11 02:53:36;;;;;;;24.60;10.95;;;;;;;-2.28;100.00;98463.34;5084422;28;20055;-77
2022/12/11 02:56:10;;;;;;;25.88;12.43;;;;;;;-2.30;100.00;98459.97;5086967;28;20142;-77
2022/12/11 02:58:45;;;;;;;30.33;11.68;;;;;;;-2.20;100.00;98470.72;5082561;28;20048;-76
2022/12/11 03:01:12;;;;;;;25.10;11.90;;;;;;;-2.07;100.00;98489.25;5075915;28;20054;-76
2022/12/11 03:03:38;;;;;;;25.85;12.55;;;;;;;-2.20;100.00;98481.38;5083001;28;21559;-77
2022/12/11 03:06:14;;;;;;;23.92;12.07;;;;;;;-2.04;100.00;98497.00;5090260;28;20040;-77
2022/12/11 03:08:40;;;;;;;27.08;13.05;;;;;;;-2.15;100.00;98480.03;5086963;28;20036;-77
2022/12/11 03:11:10;;;;;;;27.05;12.02;;;;;;;-2.18;100.00;98474.97;5084820;28;20142;-76
2022/12/11 03:13:38;;;;;;;23.88;11.63;;;;;;;-2.21;100.00;98467.22;5094067;28;20074;-76
2022/12/11 03:16:14;;;;;;;24.92;12.60;;;;;;;-2.20;100.00;98479.56;5092443;28;20131;-77
2022/12/11 03:18:49;;;;;;;26.00;12.98;;;;;;;-2.19;100.00;98486.56;5081425;28;20412;-76
2022/12/11 03:21:23;;;;;;;24.13;11.55;;;;;;;-2.33;100.00;98471.69;5085997;28;20048;-76
2022/12/11 03:23:57;;;;;;;23.10;11.07;;;;;;;-2.38;100.00;98491.66;5089781;28;20403;-76
2022/12/11 03:26:24;;;;;;;29.65;13.35;;;;;;;-2.44;100.00;98453.03;5083338;28;20295;-76
2022/12/11 03:28:58;;;;;;;25.52;13.30;;;;;;;-2.31;100.00;98475.06;5089379;28;20039;-76
2022/12/11 03:31:30;;;;;;;31.27;14.60;;;;;;;-2.26;100.00;98482.69;5082440;28;20127;-77
2022/12/11 03:34:02;;;;;;;30.63;14.55;;;;;;;-2.25;100.00;98487.06;5084591;28;20189;-76
2022/12/11 03:36:34;;;;;;;29.83;14.30;;;;;;;-2.43;100.00;98464.56;5083515;28;20059;-76
2022/12/11 03:39:06;;;;;;;25.40;12.05;;;;;;;-2.43;100.00;98461.88;5088263;28;20048;-76
2022/12/11 03:41:36;;;;;;;23.73;12.52;;;;;;;-2.29;100.00;98482.09;5075478;28;20040;-76
2022/12/11 03:44:05;;;;;;;28.83;12.50;;;;;;;-2.46;100.00;98459.47;5084664;28;20098;-77
2022/12/11 03:46:35;;;;;;;28.27;12.75;;;;;;;-2.26;100.00;98482.69;5082199;28;20048;-77
2022/12/11 03:49:05;;;;;;;25.73;12.40;;;;;;;-2.42;100.00;98447.63;5078734;28;20052;-76
2022/12/11 03:51:33;;;;;;;32.78;13.85;;;;;;;-2.44;100.00;98454.84;5077528;28;20515;-76
2022/12/11 03:54:01;;;;;;;31.50;13.68;;;;;;;-2.34;100.00;98462.00;5079387;28;20043;-76
2022/12/11 03:56:30;;;;;;;28.98;12.77;;;;;;;-2.40;100.00;98469.63;5075303;28;20052;-77
2022/12/11 03:58:56;;;;;;;26.55;12.35;;;;;;;-2.34;100.00;98482.47;5089242;28;20052;-76
2022/12/11 04:01:24;;;;;;;36.53;14.90;;;;;;;-2.41;100.00;98470.59;5081305;28;20052;-76
2022/12/11 04:03:51;;;;;;;30.83;14.52;;;;;;;-2.27;100.00;98490.81;5081188;28;20044;-76
2022/12/11 04:06:17;;;;;;;31.20;14.85;;;;;;;-2.23;100.00;98481.63;5081012;28;20059;-77
2022/12/11 04:08:44;;;;;;;27.58;12.75;;;;;;;-2.11;100.00;98485.97;5076282;28;20042;-76
2022/12/11 04:16:37;;;;;;;28.70;12.65;;;;;;;-2.32;100.00;98453.88;5086445;28;20055;-76
2022/12/11 04:24:33;;;;;;;28.58;14.23;;;;;;;-2.11;100.00;98454.00;5086810;28;20083;-76
2022/12/11 04:27:00;;;;;;;31.13;14.45;;;;;;;-1.99;100.00;98474.38;5084412;28;20056;-77
2022/12/11 04:29:26;;;;;;;32.22;14.88;;;;;;;-2.07;100.00;98459.94;5071876;28;20045;-77
2022/12/11 04:31:54;;;;;;;35.28;15.00;;;;;;;-2.10;100.00;98444.22;5079759;28;20050;-76
2022/12/11 04:34:21;;;;;;;33.35;15.23;;;;;;;-2.15;100.00;98437.44;5080653;28;20045;-77
2022/12/11 04:36:47;;;;;;;29.02;14.65;;;;;;;-1.97;100.00;98477.75;5078012;28;20044;-76
2022/12/11 04:39:14;;;;;;;37.20;15.98;;;;;;;-2.16;100.00;98445.53;5071756;28;20052;-76
2022/12/11 04:41:41;;;;;;;29.55;15.10;;;;;;;-2.08;100.00;98461.75;5078022;28;20135;-76
2022/12/11 04:44:08;;;;;;;33.55;16.45;;;;;;;-2.20;100.00;98436.09;5079310;28;20055;-76
2022/12/11 04:46:34;;;;;;;32.33;14.52;;;;;;;-2.09;100.00;98445.88;5086477;28;20067;-76
2022/12/11 04:49:02;;;;;;;35.08;15.57;;;;;;;-2.02;100.00;98461.28;5080262;28;20040;-76
2022/12/11 04:51:29;;;;;;;33.00;15.52;;;;;;;-2.08;100.00;98444.94;5077654;28;20044;-76
2022/12/11 04:53:56;;;;;;;33.95;14.88;;;;;;;-2.04;100.00;98441.91;5076201;28;20106;-76
2022/12/11 04:56:24;;;;;;;30.83;14.68;;;;;;;-2.16;100.00;98435.72;5087124;28;20044;-77
2022/12/11 04:58:51;;;;;;;27.77;13.98;;;;;;;-2.24;100.00;98431.97;5086208;28;20048;-76
2022/12/11 05:01:19;;;;;;;34.15;14.88;;;;;;;-2.21;100.00;98453.91;5086175;28;20093;-76
2022/12/11 05:03:47;;;;;;;34.05;15.35;;;;;;;-2.22;100.00;98456.69;5078204;28;20040;-76
2022/12/11 05:06:15;;;;;;;35.17;14.50;;;;;;;-2.22;100.00;98438.06;5085563;28;20483;-76
2022/12/11 05:08:44;;;;;;;30.35;14.25;;;;;;;-2.11;100.00;98453.16;5082574;28;20064;-76
2022/12/11 05:11:13;;;;;;;31.85;15.55;;;;;;;-2.20;100.00;98458.28;5088870;28;20048;-76
2022/12/11 05:13:40;;;;;;;33.05;14.52;;;;;;;-2.10;100.00;98463.69;5076873;28;20048;-76
2022/12/11 05:16:09;;;;;;;34.88;15.02;;;;;;;-2.21;100.00;98445.91;5083548;28;20036;-77
2022/12/11 05:18:35;;;;;;;28.77;13.10;;;;;;;-2.26;100.00;98448.06;5074467;28;20135;-77
2022/12/11 05:21:04;;;;;;;30.30;14.07;;;;;;;-2.34;100.00;98445.19;5083033;28;20506;-76
2022/12/11 05:23:33;;;;;;;36.83;14.35;;;;;;;-2.33;100.00;98455.72;5086995;28;20059;-76
2022/12/11 05:26:02;;;;;;;35.67;15.52;;;;;;;-2.44;100.00;98431.72;5083337;28;20108;-76
2022/12/11 05:28:32;;;;;;;33.08;15.15;;;;;;;-2.43;100.00;98440.59;5081823;28;20044;-76
2022/12/11 05:31:00;;;;;;;37.25;14.80;;;;;;;-2.28;100.00;98463.34;5090899;28;20211;-77
2022/12/11 05:33:27;;;;;;;37.33;16.50;;;;;;;-2.45;100.00;98437.19;5080146;28;20045;-77
2022/12/11 05:35:54;;;;;;;35.40;15.32;;;;;;;-2.42;100.00;98432.47;5084473;28;20141;-76
2022/12/11 05:38:21;;;;;;;34.22;15.50;;;;;;;-2.26;100.00;98460.56;5085063;28;20040;-76
2022/12/11 05:40:57;;;;;;;34.13;15.43;;;;;;;-2.21;100.00;98464.56;5076505;28;20049;-76
2022/12/11 05:43:24;;;;;;;36.20;14.45;;;;;;;-2.16;100.00;98466.84;5080769;28;20055;-76
2022/12/11 05:45:50;;;;;;;32.92;15.13;;;;;;;-2.19;100.00;98457.28;5081745;28;20177;-76
2022/12/11 05:48:17;;;;;;;32.75;16.45;;;;;;;-2.28;100.00;98447.38;5090897;28;20044;-77
2022/12/11 05:50:44;;;;;;;33.70;15.65;;;;;;;-2.26;100.00;98450.75;5080435;28;20052;-76
2022/12/11 05:53:11;;;;;;;37.38;15.48;;;;;;;-2.39;100.00;98416.25;5076742;28;20102;-76
2022/12/11 05:55:37;;;;;;;33.85;13.93;;;;;;;-2.21;100.00;98432.59;5080550;28;20563;-76
2022/12/11 05:58:05;;;;;;;30.17;14.70;;;;;;;-2.32;100.00;98411.28;5080956;28;20048;-76
2022/12/11 06:00:32;;;;;;;31.98;14.20;;;;;;;-2.39;100.00;98402.97;5090911;28;20051;-76
2022/12/11 06:02:58;;;;;;;31.23;13.77;;;;;;;-2.41;100.00;98407.56;5087436;28;20055;-76
2022/12/11 06:05:25;;;;;;;30.08;14.90;;;;;;;-2.51;100.00;98398.59;5080398;28;20138;-76
2022/12/11 06:07:51;;;;;;;28.58;13.38;;;;;;;-2.31;100.00;98420.97;5088334;28;20052;-76
2022/12/11 06:10:18;;;;;;;41.10;16.23;;;;;;;-2.59;100.00;98396.56;5089664;28;20048;-77
2022/12/11 06:12:44;;;;;;;36.67;14.80;;;;;;;-2.43;100.00;98419.28;5082241;28;20404;-77
2022/12/11 06:15:12;;;;;;;35.70;15.00;;;;;;;-2.39;100.00;98420.75;5088278;28;20104;-77
2022/12/11 06:17:39;;;;;;;34.90;15.98;;;;;;;-2.48;100.00;98398.38;5088637;28;20051;-77
2022/12/11 06:20:06;;;;;;;27.98;14.05;;;;;;;-2.46;100.00;98396.41;5082139;28;20148;-77
2022/12/11 06:22:33;;;;;;;31.63;15.32;;;;;;;-2.42;100.00;98415.69;5083784;28;20044;-77
2022/12/11 06:24:59;;;;;;;33.15;15.05;;;;;;;-2.52;100.00;98423.53;5091438;28;20363;-77
2022/12/11 06:27:26;;;;;;;34.60;14.43;;;;;;;-2.69;100.00;98409.72;5078530;28;20071;-77
2022/12/11 06:29:52;;;;;;;34.03;14.00;;;;;;;-2.57;100.00;98418.56;5081606;28;20400;-77
2022/12/11 06:32:20;;;;;;;34.65;14.73;;;;;;;-2.56;100.00;98414.06;5088723;28;20492;-77
2022/12/11 06:34:47;;;;;;;33.35;15.68;;;;;;;-2.70;100.00;98392.03;5084241;28;20058;-77
2022/12/11 06:37:14;;;;;;;39.03;16.88;;;;;;;-2.53;100.00;98406.72;5077476;28;20055;-77
2022/12/11 06:39:40;;;;;;;38.72;15.75;;;;;;;-2.55;100.00;98407.78;5088185;28;20048;-77
2022/12/11 06:42:07;;;;;;;34.63;16.08;;;;;;;-2.56;100.00;98411.41;5077523;28;20044;-77
2022/12/11 06:44:33;;;;;;;35.72;16.30;;;;;;;-2.50;100.00;98397.63;5082642;28;20044;-77
2022/12/11 06:47:00;;;;;;;38.35;16.17;;;;;;;-2.44;100.00;98409.59;5079717;28;20044;-77
2022/12/11 06:49:29;;;;;;;36.88;17.15;;;;;;;-2.43;100.00;98420.13;5090397;28;20051;-77
2022/12/11 06:51:55;;;;;;;35.50;15.87;;;;;;;-2.41;100.00;98410.22;5077783;28;20071;-77
2022/12/11 06:54:25;;;;;;;40.80;16.80;;;;;;;-2.45;100.00;98407.91;5082291;28;20055;-77
2022/12/11 06:56:52;;;;;;;43.90;17.17;;;;;;;-2.51;100.00;98407.44;5079263;28;20051;-77
2022/12/11 06:59:19;;;;;;;37.13;16.65;;;;;;;-2.50;100.00;98406.47;5083067;28;20044;-77
2022/12/11 07:01:45;;;;;;;34.88;15.07;;;;;;;-2.55;100.00;98413.13;5088699;28;20052;-77
2022/12/11 07:04:12;;;;;;;32.55;15.35;;;;;;;-2.33;100.00;98444.22;5078592;28;20048;-77
2022/12/11 07:06:40;;;;;;;39.78;17.98;;;;;;;-2.42;100.00;98442.28;5081749;28;20416;-77
2022/12/11 07:09:07;;;;;;;39.53;17.02;;;;;;;-2.41;100.00;98438.66;5078983;28;20299;-77
2022/12/11 07:11:33;;;;;;;39.92;16.73;;;;;;;-2.57;100.00;98423.03;5087549;28;20058;-77
2022/12/11 07:14:00;;;;;;;41.33;18.92;;;;;;;-2.49;100.00;98436.59;5084334;28;20497;-77
2022/12/11 07:16:27;;;;;;;37.33;16.08;;;;;;;-2.47;100.00;98431.16;5082050;28;20048;-77
2022/12/11 07:18:54;;;;;;;41.92;18.55;;;;;;;-2.34;100.00;98446.03;5084994;28;20062;-77
2022/12/11 07:21:21;;;;;;;39.45;17.27;;;;;;;-2.51;100.00;98436.72;5084817;28;20044;-77
2022/12/11 07:23:50;;;;;;;36.90;15.65;;;;;;;-2.41;100.00;98430.66;5083007;28;20082;-78
2022/12/11 07:26:26;;;;;;;40.73;16.40;;;;;;;-2.27;100.00;98448.19;5086692;28;20509;-77
2022/12/11 07:28:52;;;;;;;39.45;17.38;;;;;;;-2.21;100.00;98455.72;5083740;28;20293;-77
2022/12/11 07:31:21;;;;;;;39.83;16.08;;;;;;;-2.43;100.00;98428.13;5085091;28;20367;-78
2022/12/11 07:33:52;;;;;;;37.30;15.50;;;;;;;-2.41;100.00;98435.97;5072980;28;20072;-78
2022/12/11 07:36:19;;;;;;;38.50;16.83;;;;;;;-2.27;100.00;98451.72;5091585;28;20040;-78
2022/12/11 07:38:45;;;;;;;39.50;16.35;;;;;;;-2.32;100.00;98445.91;5073007;28;20049;-78
2022/12/11 07:41:15;;;;;;;38.85;16.13;;;;;;;-2.34;100.00;98456.66;5081898;28;20252;-78
2022/12/11 07:43:42;;;;;;;39.92;15.52;;;;;;;-2.44;100.00;98441.53;5087249;28;20056;-78
2022/12/11 07:46:12;;;;;;;37.88;16.80;;;;;;;-2.29;100.00;98458.97;5089886;28;20055;-78
2022/12/11 07:48:41;;;;;;;42.85;17.65;;;;;;;-2.32;100.00;98460.09;5088159;28;20044;-77
2022/12/11 07:51:09;;;;;;;40.47;16.77;;;;;;;-2.40;100.00;98446.50;5085211;28;20399;-78
2022/12/11 07:53:36;;;;;;;44.67;18.20;;;;;;;-2.34;100.00;98450.50;5082669;28;20059;-76
2022/12/11 07:56:03;;;;;;;47.92;18.65;;;;;;;-2.30;100.00;98446.66;5089939;28;20131;-76
2022/12/11 07:58:31;;;;;;;45.72;19.15;;;;;;;-2.33;100.00;98434.41;5083373;28;20048;-76
2022/12/11 08:00:58;;;;;;;48.83;19.55;;;;;;;-2.21;100.00;98458.41;5085516;28;20263;-77
2022/12/11 08:03:25;;;;;;;47.25;19.77;;;;;;;-2.24;100.00;98439.97;5084467;28;20044;-77
2022/12/11 08:06:04;;;;;;;43.65;18.60;;;;;;;-2.18;100.00;98458.97;5088329;28;20056;-77
2022/12/11 08:08:31;;;;;;;47.28;16.77;;;;;;;-2.23;100.00;98444.34;5081480;28;20083;-75
2022/12/11 08:11:00;;;;;;;42.47;18.40;;;;;;;-2.07;100.00;98443.97;5084310;28;20059;-76
2022/12/11 08:13:27;;;;;;;44.47;18.35;;;;;;;-2.11;100.00;98422.03;5098461;28;20040;-78
2022/12/11 08:15:55;;;;;;;38.00;17.70;;;;;;;-2.02;100.00;98412.47;5082856;28;20123;-78
2022/12/11 08:18:22;;;;;;;41.70;17.45;;;;;;;-2.01;100.00;98417.69;5085013;28;20064;-78
2022/12/11 08:20:48;;;;;;;48.97;19.20;;;;;;;-2.00;100.00;98435.38;5087616;28;20127;-78
2022/12/11 08:23:15;;;;;;;44.95;18.88;;;;;;;-1.95;100.00;98445.66;5071601;28;20127;-78
2022/12/11 08:25:42;;;;;;;43.95;18.45;;;;;;;-1.87;100.00;98445.03;5085320;28;20125;-78
2022/12/11 08:28:08;;;;;;;44.55;18.33;;;;;;;-2.00;100.00;98429.19;5083996;28;20518;-78
2022/12/11 08:30:35;;;;;;;47.22;19.15;;;;;;;-1.89;100.00;98426.50;5087110;28;20136;-77
2022/12/11 08:33:03;;;;;;;46.70;20.05;;;;;;;-1.85;100.00;98430.63;5081416;28;20056;-78
2022/12/11 08:35:29;;;;;;;42.67;19.30;;;;;;;-2.01;100.00;98440.81;5080786;28;20062;-78
2022/12/11 08:37:56;;;;;;;40.10;18.85;;;;;;;-2.08;100.00;98431.63;5094011;28;20048;-77
2022/12/11 08:40:22;;;;;;;38.78;18.25;;;;;;;-2.09;100.00;98419.25;5089791;28;20065;-77
2022/12/11 08:42:51;;;;;;;42.42;18.58;;;;;;;-2.00;100.00;98443.34;5086415;28;20483;-78
2022/12/11 08:45:18;;;;;;;44.78;17.42;;;;;;;-2.03;100.00;98451.59;5074464;28;20052;-77
2022/12/11 08:47:46;;;;;;;46.22;19.77;;;;;;;-2.20;100.00;98414.78;5083534;28;20075;-78
2022/12/11 08:50:14;;;;;;;47.63;18.60;;;;;;;-1.98;100.00;98444.06;5090410;28;20468;-78
2022/12/11 08:52:40;;;;;;;44.60;18.05;;;;;;;-2.00;100.00;98435.38;5079706;28;20052;-78
2022/12/11 08:55:07;;;;;;;39.85;18.70;;;;;;;-2.05;100.00;98432.19;5088025;28;20052;-78
2022/12/11 08:57:34;;;;;;;39.78;17.90;;;;;;;-2.04;100.00;98446.38;5082665;28;20044;-78
2022/12/11 09:00:00;;;;;;;41.08;18.35;;;;;;;-2.05;100.00;98452.69;5067938;22;20041;-78
2022/12/11 09:02:27;;;;;;;40.05;14.35;;;;;;;-2.20;100.00;98426.31;5039068;28;20052;-78
2022/12/11 09:04:54;;;;;;;42.90;16.65;;;;;;;-2.05;100.00;98444.69;5051085;28;20106;-78
2022/12/11 09:07:21;;;;;;;46.83;19.35;;;;;;;-2.15;100.00;98420.63;5050802;28;20049;-78
2022/12/11 09:09:48;;;;;;;41.92;18.20;;;;;;;-1.99;100.00;98444.19;5033569;28;20077;-78
2022/12/11 09:12:15;;;;;;;43.78;18.80;;;;;;;-1.93;100.00;98449.03;5019843;28;20049;-78
2022/12/11 09:14:41;;;;;;;52.97;19.10;;;;;;;-1.94;100.00;98447.34;5030836;28;20057;-78
2022/12/11 09:17:07;;;;;;;43.35;19.65;;;;;;;-2.08;100.00;98424.47;5028764;28;20060;-78
2022/12/11 09:19:34;;;;;;;40.05;17.50;;;;;;;-1.76;100.00;98449.47;5028348;28;20049;-78
2022/12/11 09:22:01;;;;;;;39.80;18.55;;;;;;;-1.94;100.00;98452.69;5030218;28;20054;-78
2022/12/11 09:24:29;;;;;;;42.25;18.13;;;;;;;-1.93;100.00;98440.19;5029889;28;20049;-78
2022/12/11 09:26:55;;;;;;;42.35;18.40;;;;;;;-1.81;100.00;98445.41;5029908;28;20515;-78
2022/12/11 09:29:22;;;;;;;44.58;19.08;;;;;;;-1.87;100.00;98423.72;5037606;28;20052;-78
2022/12/11 09:31:49;;;;;;;51.30;19.40;;;;;;;-1.76;100.00;98442.34;5022333;28;20045;-78
2022/12/11 09:34:15;;;;;;;42.10;18.90;;;;;;;-1.83;100.00;98430.50;5028124;28;20094;-78
2022/12/11 09:36:43;;;;;;;42.97;18.30;;;;;;;-1.74;100.00;98444.91;5030231;28;20572;-78
2022/12/11 09:39:12;;;;;;;46.55;18.92;;;;;;;-1.59;100.00;98446.31;5035833;28;20045;-77
2022/12/11 09:41:49;;;;;;;44.92;18.23;;;;;;;-1.51;100.00;98446.50;5040880;28;20053;-78
2022/12/11 09:44:27;;;;;;;45.47;20.10;;;;;;;-1.53;100.00;98435.13;5033466;28;20046;-78
2022/12/11 09:46:55;;;;;;;37.20;16.35;;;;;;;-1.69;100.00;98410.72;5022445;28;20077;-78
2022/12/11 09:49:28;;;;;;;43.50;18.40;;;;;;;-1.73;100.00;98431.44;5028368;28;20065;-78
2022/12/11 09:52:06;;;;;;;57.70;21.13;;;;;;;-1.62;100.00;98425.22;5029211;28;20057;-78
2022/12/11 09:54:33;;;;;;;43.05;18.00;;;;;;;-1.57;100.00;98420.34;5029306;28;20409;-78
2022/12/11 09:57:17;;;;;;;41.15;17.35;;;;;;;-1.61;100.00;98416.28;5029158;28;20111;-78
2022/12/11 09:59:59;;;;;;;46.88;18.60;;;;;;;-1.53;100.00;98410.31;5037282;28;20073;-78
2022/12/11 10:02:38;;;;;;;40.03;17.05;;;;;;;-1.64;100.00;98414.69;5045761;28;20049;-79
2022/12/11 10:05:17;;;;;;;43.70;18.77;;;;;;;-1.61;100.00;98400.28;5045556;28;20060;-79
2022/12/11 10:07:50;;;;;;;41.92;16.80;;;;;;;-1.64;100.00;98405.84;5029493;28;20042;-78
2022/12/11 10:10:29;;;;;;;44.35;19.35;;;;;;;-1.35;100.00;98415.94;5034282;28;20037;-78
2022/12/11 10:13:06;;;;;;;47.70;18.20;;;;;;;-1.38;100.00;98434.84;5030440;28;20041;-78
2022/12/11 10:15:39;;;;;;;56.80;18.63;;;;;;;-1.36;100.00;98416.91;5027802;28;20053;-78
2022/12/11 10:18:12;;;;;;;45.72;19.20;;;;;;;-1.49;100.00;98391.25;5028522;28;20056;-78
2022/12/11 10:20:41;;;;;;;47.70;18.73;;;;;;;-1.38;100.00;98408.19;5028873;28;20073;-79
2022/12/11 10:23:10;;;;;;;49.00;19.30;;;;;;;-1.48;100.00;98398.25;5029230;28;20046;-79
2022/12/11 10:25:40;;;;;;;54.70;19.70;;;;;;;-1.33;100.00;98412.13;5029580;28;20049;-78
2022/12/11 10:28:13;;;;;;;41.22;18.05;;;;;;;-1.43;100.00;98392.53;5029243;28;20469;-78
2022/12/11 10:30:47;;;;;;;38.50;17.75;;;;;;;-1.46;100.00;98388.34;5032587;28;20046;-78
2022/12/11 10:33:20;;;;;;;42.70;18.27;;;;;;;-1.34;100.00;98362.47;5028379;28;20046;-78
2022/12/11 10:35:50;;;;;;;30.52;13.68;;;;;;;-1.18;100.00;98390.50;5030056;28;20049;-77
2022/12/11 10:38:22;;;;;;;43.47;17.55;;;;;;;-1.40;100.00;98383.44;5028608;28;20136;-77
2022/12/11 10:40:51;;;;;;;39.78;16.48;;;;;;;-1.41;100.00;98385.28;5029001;28;20045;-77
2022/12/11 10:43:19;;;;;;;44.72;17.73;;;;;;;-1.33;100.00;98376.63;5028178;28;20049;-77
2022/12/11 10:45:53;;;;;;;50.53;16.67;;;;;;;-1.46;100.00;98353.69;5029971;28;20053;-77
2022/12/11 10:48:20;;;;;;;38.05;17.10;;;;;;;-1.31;100.00;98380.88;5032198;28;20059;-78
2022/12/11 10:50:57;;;;;;;37.20;16.02;;;;;;;-1.57;100.00;98361.72;5040353;28;20041;-78
2022/12/11 10:53:25;;;;;;;36.92;16.50;;;;;;;-1.35;100.00;98383.94;5031431;28;20400;-77
2022/12/11 10:55:52;;;;;;;39.17;16.27;;;;;;;-1.32;100.00;98378.34;5031083;28;20477;-77
2022/12/11 10:58:22;;;;;;;41.95;15.98;;;;;;;-1.23;100.00;98380.22;5032069;28;20041;-77
2022/12/11 11:01:03;;;;;;;37.75;15.07;;;;;;;-1.22;100.00;98373.06;5033605;28;20044;-78
2022/12/11 11:03:30;;;;;;;37.58;16.30;;;;;;;-1.36;100.00;98367.06;5031722;28;20060;-77
2022/12/11 11:06:15;;;;;;;38.70;15.05;;;;;;;-1.46;100.00;98353.69;5033274;28;20050;-78
2022/12/11 11:08:44;;;;;;;37.92;15.93;;;;;;;-1.25;100.00;98374.16;5031085;28;20408;-77
2022/12/11 11:11:22;;;;;;;34.00;14.45;;;;;;;-1.31;100.00;98340.00;5040984;28;20049;-78
2022/12/11 11:13:50;;;;;;;34.85;15.30;;;;;;;-1.15;100.00;98358.22;5043622;28;20420;-77
2022/12/11 11:16:20;;;;;;;35.10;15.88;;;;;;;-1.05;100.00;98356.47;5047819;28;20053;-78
2022/12/11 11:18:51;;;;;;;35.35;15.35;;;;;;;-1.31;100.00;98337.34;5050883;28;20048;-77
2022/12/11 11:21:19;;;;;;;31.27;14.25;;;;;;;-1.07;100.00;98355.75;5028780;28;20630;-77
2022/12/11 11:23:46;;;;;;;37.45;15.88;;;;;;;-0.99;100.00;98360.44;5038357;28;20045;-77
2022/12/11 11:26:13;;;;;;;36.75;16.90;;;;;;;-1.07;100.00;98355.75;5047235;28;20551;-78
2022/12/11 11:28:47;;;;;;;39.65;16.27;;;;;;;-0.92;100.00;98361.59;5036747;28;20128;-78